sensor_id;sensor_type;location;lat;lon;timestamp;P1;durP1;ratioP1;P2;durP2;ratioP2
19036;SDS011;9651;49.138;8.900;2023-07-31T00:03:16;3.35;;;1.38;;
19036;SDS011;9651;49.138;8.900;2023-07-31T00:07:18;3.83;;;2.17;;
19036;SDS011;9651;49.138;8.900;2023-07-31T00:11:20;2.90;;;1.40;;
19036;SDS011;9651;49.138;8.900;2023-07-31T00:15:22;4.82;;;1.63;;
19036;SDS011;9651;49.138;8.900;2023-07-31T00:19:25;2.20;;;1.58;;
19036;SDS011;9651;49.138;8.900;2023-07-31T00:23:27;3.15;;;1.42;;
19036;SDS011;9651;49.138;8.900;2023-07-31T00:27:30;2.70;;;1.42;;
19036;SDS011;9651;49.138;8.900;2023-07-31T00:31:32;2.83;;;1.20;;
19036;SDS011;9651;49.138;8.900;2023-07-31T00:35:35;4.07;;;1.73;;
19036;SDS011;9651;49.138;8.900;2023-07-31T00:39:37;2.08;;;1.70;;
19036;SDS011;9651;49.138;8.900;2023-07-31T00:43:39;3.55;;;1.70;;
19036;SDS011;9651;49.138;8.900;2023-07-31T00:47:41;3.80;;;1.38;;
19036;SDS011;9651;49.138;8.900;2023-07-31T00:51:44;1.77;;;1.48;;
19036;SDS011;9651;49.138;8.900;2023-07-31T00:55:46;2.88;;;1.63;;
19036;SDS011;9651;49.138;8.900;2023-07-31T00:59:48;2.85;;;1.40;;
19036;SDS011;9651;49.138;8.900;2023-07-31T01:03:50;4.75;;;1.42;;
19036;SDS011;9651;49.138;8.900;2023-07-31T01:07:56;3.03;;;1.50;;
19036;SDS011;9651;49.138;8.900;2023-07-31T01:12:04;6.30;;;1.70;;
19036;SDS011;9651;49.138;8.900;2023-07-31T01:16:09;1.88;;;1.30;;
19036;SDS011;9651;49.138;8.900;2023-07-31T01:20:12;3.38;;;1.42;;
19036;SDS011;9651;49.138;8.900;2023-07-31T01:24:21;2.83;;;1.60;;
19036;SDS011;9651;49.138;8.900;2023-07-31T01:28:32;2.67;;;1.55;;
19036;SDS011;9651;49.138;8.900;2023-07-31T01:32:40;5.45;;;1.60;;
19036;SDS011;9651;49.138;8.900;2023-07-31T01:36:44;1.58;;;1.23;;
19036;SDS011;9651;49.138;8.900;2023-07-31T01:40:45;3.28;;;1.50;;
19036;SDS011;9651;49.138;8.900;2023-07-31T01:44:54;4.53;;;1.85;;
19036;SDS011;9651;49.138;8.900;2023-07-31T01:48:55;2.53;;;1.38;;
19036;SDS011;9651;49.138;8.900;2023-07-31T01:52:58;2.95;;;1.83;;
19036;SDS011;9651;49.138;8.900;2023-07-31T01:56:59;4.72;;;1.52;;
19036;SDS011;9651;49.138;8.900;2023-07-31T02:01:02;2.95;;;1.27;;
19036;SDS011;9651;49.138;8.900;2023-07-31T02:05:05;3.67;;;1.52;;
19036;SDS011;9651;49.138;8.900;2023-07-31T02:09:07;3.92;;;1.50;;
19036;SDS011;9651;49.138;8.900;2023-07-31T02:13:09;4.45;;;1.55;;
19036;SDS011;9651;49.138;8.900;2023-07-31T02:17:12;4.68;;;1.50;;
19036;SDS011;9651;49.138;8.900;2023-07-31T02:21:14;3.05;;;1.50;;
19036;SDS011;9651;49.138;8.900;2023-07-31T02:25:16;2.67;;;1.85;;
19036;SDS011;9651;49.138;8.900;2023-07-31T02:29:19;6.47;;;2.08;;
19036;SDS011;9651;49.138;8.900;2023-07-31T02:33:22;6.07;;;1.83;;
19036;SDS011;9651;49.138;8.900;2023-07-31T02:37:24;3.90;;;1.80;;
19036;SDS011;9651;49.138;8.900;2023-07-31T02:41:28;6.45;;;1.67;;
19036;SDS011;9651;49.138;8.900;2023-07-31T02:45:30;2.85;;;1.55;;
19036;SDS011;9651;49.138;8.900;2023-07-31T02:49:33;4.97;;;1.50;;
19036;SDS011;9651;49.138;8.900;2023-07-31T02:53:35;3.13;;;1.73;;
19036;SDS011;9651;49.138;8.900;2023-07-31T02:57:37;2.63;;;1.52;;
19036;SDS011;9651;49.138;8.900;2023-07-31T03:01:39;2.83;;;1.70;;
19036;SDS011;9651;49.138;8.900;2023-07-31T03:05:42;4.72;;;1.77;;
19036;SDS011;9651;49.138;8.900;2023-07-31T03:09:44;5.40;;;1.80;;
19036;SDS011;9651;49.138;8.900;2023-07-31T03:13:46;5.47;;;1.75;;
19036;SDS011;9651;49.138;8.900;2023-07-31T03:17:48;5.20;;;2.38;;
19036;SDS011;9651;49.138;8.900;2023-07-31T03:21:51;5.38;;;1.90;;
19036;SDS011;9651;49.138;8.900;2023-07-31T03:25:56;3.03;;;1.50;;
19036;SDS011;9651;49.138;8.900;2023-07-31T03:30:02;5.35;;;1.90;;
19036;SDS011;9651;49.138;8.900;2023-07-31T03:34:04;4.47;;;1.67;;
19036;SDS011;9651;49.138;8.900;2023-07-31T03:38:07;4.03;;;1.90;;
19036;SDS011;9651;49.138;8.900;2023-07-31T03:42:09;4.30;;;1.63;;
19036;SDS011;9651;49.138;8.900;2023-07-31T03:46:11;3.75;;;1.77;;
19036;SDS011;9651;49.138;8.900;2023-07-31T03:50:13;4.45;;;2.72;;
19036;SDS011;9651;49.138;8.900;2023-07-31T03:54:17;5.63;;;2.33;;
19036;SDS011;9651;49.138;8.900;2023-07-31T03:58:18;6.00;;;2.10;;
19036;SDS011;9651;49.138;8.900;2023-07-31T04:02:20;6.60;;;1.88;;
19036;SDS011;9651;49.138;8.900;2023-07-31T04:06:22;3.80;;;1.60;;
19036;SDS011;9651;49.138;8.900;2023-07-31T04:10:25;3.92;;;1.80;;
19036;SDS011;9651;49.138;8.900;2023-07-31T04:14:27;4.97;;;1.70;;
19036;SDS011;9651;49.138;8.900;2023-07-31T04:18:29;4.07;;;1.60;;
19036;SDS011;9651;49.138;8.900;2023-07-31T04:22:32;3.92;;;1.70;;
19036;SDS011;9651;49.138;8.900;2023-07-31T04:26:35;2.05;;;1.40;;
19036;SDS011;9651;49.138;8.900;2023-07-31T04:30:37;1.55;;;1.27;;
19036;SDS011;9651;49.138;8.900;2023-07-31T04:34:39;3.40;;;1.42;;
19036;SDS011;9651;49.138;8.900;2023-07-31T04:38:41;4.30;;;1.77;;
19036;SDS011;9651;49.138;8.900;2023-07-31T04:42:44;5.28;;;1.77;;
19036;SDS011;9651;49.138;8.900;2023-07-31T04:46:46;8.98;;;1.77;;
19036;SDS011;9651;49.138;8.900;2023-07-31T04:50:48;1.80;;;1.50;;
19036;SDS011;9651;49.138;8.900;2023-07-31T04:54:50;5.10;;;1.70;;
19036;SDS011;9651;49.138;8.900;2023-07-31T04:58:53;1.90;;;1.70;;
19036;SDS011;9651;49.138;8.900;2023-07-31T05:02:55;3.65;;;1.50;;
19036;SDS011;9651;49.138;8.900;2023-07-31T05:06:57;5.25;;;1.50;;
19036;SDS011;9651;49.138;8.900;2023-07-31T05:10:58;5.07;;;1.70;;
19036;SDS011;9651;49.138;8.900;2023-07-31T05:15:02;2.60;;;1.48;;
19036;SDS011;9651;49.138;8.900;2023-07-31T05:19:04;3.75;;;1.80;;
19036;SDS011;9651;49.138;8.900;2023-07-31T05:23:06;3.65;;;2.00;;
19036;SDS011;9651;49.138;8.900;2023-07-31T05:27:08;3.38;;;1.70;;
19036;SDS011;9651;49.138;8.900;2023-07-31T05:31:11;5.00;;;1.77;;
19036;SDS011;9651;49.138;8.900;2023-07-31T05:35:13;3.08;;;2.10;;
19036;SDS011;9651;49.138;8.900;2023-07-31T05:39:14;3.22;;;1.60;;
19036;SDS011;9651;49.138;8.900;2023-07-31T05:43:16;3.42;;;1.45;;
19036;SDS011;9651;49.138;8.900;2023-07-31T05:47:20;4.68;;;1.70;;
19036;SDS011;9651;49.138;8.900;2023-07-31T05:51:21;9.45;;;3.00;;
19036;SDS011;9651;49.138;8.900;2023-07-31T05:55:23;3.35;;;1.20;;
19036;SDS011;9651;49.138;8.900;2023-07-31T05:59:26;6.63;;;2.15;;
19036;SDS011;9651;49.138;8.900;2023-07-31T06:03:30;5.45;;;1.63;;
19036;SDS011;9651;49.138;8.900;2023-07-31T06:07:32;3.83;;;2.20;;
19036;SDS011;9651;49.138;8.900;2023-07-31T06:11:33;3.05;;;1.67;;
19036;SDS011;9651;49.138;8.900;2023-07-31T06:15:35;4.88;;;1.85;;
19036;SDS011;9651;49.138;8.900;2023-07-31T06:19:38;5.07;;;1.85;;
19036;SDS011;9651;49.138;8.900;2023-07-31T06:23:40;2.90;;;1.33;;
19036;SDS011;9651;49.138;8.900;2023-07-31T06:27:42;3.25;;;1.35;;
19036;SDS011;9651;49.138;8.900;2023-07-31T06:31:44;2.67;;;1.20;;
19036;SDS011;9651;49.138;8.900;2023-07-31T06:35:48;5.43;;;2.10;;
19036;SDS011;9651;49.138;8.900;2023-07-31T06:39:49;3.05;;;1.95;;
19036;SDS011;9651;49.138;8.900;2023-07-31T06:43:52;2.75;;;1.42;;
19036;SDS011;9651;49.138;8.900;2023-07-31T06:47:54;3.70;;;1.80;;
19036;SDS011;9651;49.138;8.900;2023-07-31T06:51:57;5.90;;;2.13;;
19036;SDS011;9651;49.138;8.900;2023-07-31T06:55:59;5.18;;;1.75;;
19036;SDS011;9651;49.138;8.900;2023-07-31T07:00:01;4.50;;;1.70;;
19036;SDS011;9651;49.138;8.900;2023-07-31T07:04:04;3.65;;;1.55;;
19036;SDS011;9651;49.138;8.900;2023-07-31T07:08:07;4.65;;;1.80;;
19036;SDS011;9651;49.138;8.900;2023-07-31T07:12:09;4.78;;;1.70;;
19036;SDS011;9651;49.138;8.900;2023-07-31T07:16:11;4.45;;;1.88;;
19036;SDS011;9651;49.138;8.900;2023-07-31T07:20:12;6.13;;;2.75;;
19036;SDS011;9651;49.138;8.900;2023-07-31T07:24:16;3.25;;;1.70;;
19036;SDS011;9651;49.138;8.900;2023-07-31T07:28:17;4.68;;;1.70;;
19036;SDS011;9651;49.138;8.900;2023-07-31T07:32:21;5.95;;;1.70;;
19036;SDS011;9651;49.138;8.900;2023-07-31T07:36:27;5.82;;;2.00;;
19036;SDS011;9651;49.138;8.900;2023-07-31T07:40:30;3.35;;;1.73;;
19036;SDS011;9651;49.138;8.900;2023-07-31T07:44:32;4.32;;;1.90;;
19036;SDS011;9651;49.138;8.900;2023-07-31T07:48:34;3.03;;;1.50;;
19036;SDS011;9651;49.138;8.900;2023-07-31T07:52:36;4.03;;;2.25;;
19036;SDS011;9651;49.138;8.900;2023-07-31T07:56:39;4.25;;;1.90;;
19036;SDS011;9651;49.138;8.900;2023-07-31T08:00:41;3.17;;;1.70;;
19036;SDS011;9651;49.138;8.900;2023-07-31T08:04:43;3.13;;;1.92;;
19036;SDS011;9651;49.138;8.900;2023-07-31T08:08:45;4.15;;;1.73;;
19036;SDS011;9651;49.138;8.900;2023-07-31T08:12:48;3.28;;;1.80;;
19036;SDS011;9651;49.138;8.900;2023-07-31T08:16:50;5.93;;;2.75;;
19036;SDS011;9651;49.138;8.900;2023-07-31T08:20:51;4.15;;;2.03;;
19036;SDS011;9651;49.138;8.900;2023-07-31T08:24:54;4.80;;;2.05;;
19036;SDS011;9651;49.138;8.900;2023-07-31T08:28:57;4.32;;;1.98;;
19036;SDS011;9651;49.138;8.900;2023-07-31T08:32:59;4.40;;;2.30;;
19036;SDS011;9651;49.138;8.900;2023-07-31T08:37:00;5.03;;;1.70;;
19036;SDS011;9651;49.138;8.900;2023-07-31T08:41:03;3.95;;;1.80;;
19036;SDS011;9651;49.138;8.900;2023-07-31T08:45:07;3.72;;;1.77;;
19036;SDS011;9651;49.138;8.900;2023-07-31T08:49:10;3.08;;;1.63;;
19036;SDS011;9651;49.138;8.900;2023-07-31T08:53:12;3.88;;;2.03;;
19036;SDS011;9651;49.138;8.900;2023-07-31T08:57:14;3.80;;;1.60;;
19036;SDS011;9651;49.138;8.900;2023-07-31T09:01:18;4.53;;;2.08;;
19036;SDS011;9651;49.138;8.900;2023-07-31T09:05:20;5.05;;;1.70;;
19036;SDS011;9651;49.138;8.900;2023-07-31T09:09:22;5.00;;;2.42;;
19036;SDS011;9651;49.138;8.900;2023-07-31T09:13:24;5.40;;;2.17;;
19036;SDS011;9651;49.138;8.900;2023-07-31T09:17:31;3.33;;;1.88;;
19036;SDS011;9651;49.138;8.900;2023-07-31T09:21:34;5.20;;;2.83;;
19036;SDS011;9651;49.138;8.900;2023-07-31T09:25:49;4.88;;;1.85;;
19036;SDS011;9651;49.138;8.900;2023-07-31T09:29:58;5.20;;;2.03;;
19036;SDS011;9651;49.138;8.900;2023-07-31T09:34:01;6.68;;;2.17;;
19036;SDS011;9651;49.138;8.900;2023-07-31T09:38:05;5.00;;;2.15;;
19036;SDS011;9651;49.138;8.900;2023-07-31T09:42:08;3.58;;;1.73;;
19036;SDS011;9651;49.138;8.900;2023-07-31T09:46:12;5.65;;;2.33;;
19036;SDS011;9651;49.138;8.900;2023-07-31T09:50:16;5.13;;;2.08;;
19036;SDS011;9651;49.138;8.900;2023-07-31T09:54:18;4.78;;;1.88;;
19036;SDS011;9651;49.138;8.900;2023-07-31T09:58:20;5.88;;;2.00;;
19036;SDS011;9651;49.138;8.900;2023-07-31T10:02:22;4.50;;;1.85;;
19036;SDS011;9651;49.138;8.900;2023-07-31T10:06:27;4.47;;;2.28;;
19036;SDS011;9651;49.138;8.900;2023-07-31T10:10:29;4.07;;;2.17;;
19036;SDS011;9651;49.138;8.900;2023-07-31T10:14:32;4.28;;;2.30;;
19036;SDS011;9651;49.138;8.900;2023-07-31T10:18:34;3.97;;;2.08;;
19036;SDS011;9651;49.138;8.900;2023-07-31T10:22:38;9.30;;;2.38;;
19036;SDS011;9651;49.138;8.900;2023-07-31T10:26:41;3.92;;;2.10;;
19036;SDS011;9651;49.138;8.900;2023-07-31T10:30:48;5.63;;;2.67;;
19036;SDS011;9651;49.138;8.900;2023-07-31T10:34:51;5.00;;;1.92;;
19036;SDS011;9651;49.138;8.900;2023-07-31T10:38:56;4.82;;;2.33;;
19036;SDS011;9651;49.138;8.900;2023-07-31T10:42:58;4.30;;;2.22;;
19036;SDS011;9651;49.138;8.900;2023-07-31T10:47:00;5.38;;;2.58;;
19036;SDS011;9651;49.138;8.900;2023-07-31T10:51:06;4.95;;;3.00;;
19036;SDS011;9651;49.138;8.900;2023-07-31T10:55:15;4.22;;;2.38;;
19036;SDS011;9651;49.138;8.900;2023-07-31T10:59:26;6.63;;;2.47;;
19036;SDS011;9651;49.138;8.900;2023-07-31T11:03:40;4.10;;;2.38;;
19036;SDS011;9651;49.138;8.900;2023-07-31T11:07:46;4.03;;;2.72;;
19036;SDS011;9651;49.138;8.900;2023-07-31T11:11:50;6.20;;;2.42;;
19036;SDS011;9651;49.138;8.900;2023-07-31T11:15:52;4.53;;;2.47;;
19036;SDS011;9651;49.138;8.900;2023-07-31T11:19:54;7.20;;;2.40;;
19036;SDS011;9651;49.138;8.900;2023-07-31T11:23:56;4.72;;;2.00;;
19036;SDS011;9651;49.138;8.900;2023-07-31T11:28:03;6.72;;;2.55;;
19036;SDS011;9651;49.138;8.900;2023-07-31T11:32:15;4.57;;;2.03;;
19036;SDS011;9651;49.138;8.900;2023-07-31T11:36:18;3.85;;;2.35;;
19036;SDS011;9651;49.138;8.900;2023-07-31T11:40:21;5.35;;;2.47;;
19036;SDS011;9651;49.138;8.900;2023-07-31T11:44:38;2.90;;;2.20;;
19036;SDS011;9651;49.138;8.900;2023-07-31T11:48:47;3.65;;;1.80;;
19036;SDS011;9651;49.138;8.900;2023-07-31T11:52:51;4.45;;;2.30;;
19036;SDS011;9651;49.138;8.900;2023-07-31T11:56:56;4.43;;;2.13;;
19036;SDS011;9651;49.138;8.900;2023-07-31T12:01:02;4.40;;;2.60;;
19036;SDS011;9651;49.138;8.900;2023-07-31T12:05:05;3.80;;;2.22;;
19036;SDS011;9651;49.138;8.900;2023-07-31T12:09:07;3.35;;;1.70;;
19036;SDS011;9651;49.138;8.900;2023-07-31T12:13:10;4.15;;;2.30;;
19036;SDS011;9651;49.138;8.900;2023-07-31T12:17:14;3.88;;;1.92;;
19036;SDS011;9651;49.138;8.900;2023-07-31T12:21:16;6.00;;;2.40;;
19036;SDS011;9651;49.138;8.900;2023-07-31T12:25:19;6.90;;;2.45;;
19036;SDS011;9651;49.138;8.900;2023-07-31T12:29:20;5.72;;;2.20;;
19036;SDS011;9651;49.138;8.900;2023-07-31T12:33:24;5.63;;;2.30;;
19036;SDS011;9651;49.138;8.900;2023-07-31T12:37:32;6.30;;;2.28;;
19036;SDS011;9651;49.138;8.900;2023-07-31T12:41:34;5.10;;;1.92;;
19036;SDS011;9651;49.138;8.900;2023-07-31T12:45:36;6.20;;;2.33;;
19036;SDS011;9651;49.138;8.900;2023-07-31T12:49:39;3.50;;;2.20;;
19036;SDS011;9651;49.138;8.900;2023-07-31T12:53:41;4.60;;;2.10;;
19036;SDS011;9651;49.138;8.900;2023-07-31T12:57:43;6.30;;;2.22;;
19036;SDS011;9651;49.138;8.900;2023-07-31T13:01:45;4.85;;;2.42;;
19036;SDS011;9651;49.138;8.900;2023-07-31T13:05:48;4.10;;;1.95;;
19036;SDS011;9651;49.138;8.900;2023-07-31T13:09:52;4.25;;;2.10;;
19036;SDS011;9651;49.138;8.900;2023-07-31T13:13:54;4.40;;;1.85;;
19036;SDS011;9651;49.138;8.900;2023-07-31T13:17:56;5.15;;;2.10;;
19036;SDS011;9651;49.138;8.900;2023-07-31T13:21:59;3.35;;;2.17;;
19036;SDS011;9651;49.138;8.900;2023-07-31T13:26:01;5.07;;;2.17;;
19036;SDS011;9651;49.138;8.900;2023-07-31T13:30:03;4.38;;;2.17;;
19036;SDS011;9651;49.138;8.900;2023-07-31T13:34:06;5.85;;;2.15;;
19036;SDS011;9651;49.138;8.900;2023-07-31T13:38:09;4.72;;;2.10;;
19036;SDS011;9651;49.138;8.900;2023-07-31T13:42:11;3.30;;;2.00;;
19036;SDS011;9651;49.138;8.900;2023-07-31T13:46:13;5.10;;;1.83;;
19036;SDS011;9651;49.138;8.900;2023-07-31T13:50:15;8.98;;;2.22;;
19036;SDS011;9651;49.138;8.900;2023-07-31T13:54:20;4.93;;;2.28;;
19036;SDS011;9651;49.138;8.900;2023-07-31T13:58:23;5.63;;;2.35;;
19036;SDS011;9651;49.138;8.900;2023-07-31T14:02:25;5.32;;;2.35;;
19036;SDS011;9651;49.138;8.900;2023-07-31T14:06:26;5.18;;;2.60;;
19036;SDS011;9651;49.138;8.900;2023-07-31T14:10:30;4.13;;;2.10;;
19036;SDS011;9651;49.138;8.900;2023-07-31T14:14:32;3.13;;;1.75;;
19036;SDS011;9651;49.138;8.900;2023-07-31T14:18:34;4.55;;;1.70;;
19036;SDS011;9651;49.138;8.900;2023-07-31T14:22:36;3.88;;;1.90;;
19036;SDS011;9651;49.138;8.900;2023-07-31T14:26:39;3.83;;;2.17;;
19036;SDS011;9651;49.138;8.900;2023-07-31T14:30:41;5.03;;;2.20;;
19036;SDS011;9651;49.138;8.900;2023-07-31T14:34:43;4.07;;;2.00;;
19036;SDS011;9651;49.138;8.900;2023-07-31T14:38:44;3.60;;;2.03;;
19036;SDS011;9651;49.138;8.900;2023-07-31T14:42:48;3.92;;;2.10;;
19036;SDS011;9651;49.138;8.900;2023-07-31T14:46:49;2.75;;;1.85;;
19036;SDS011;9651;49.138;8.900;2023-07-31T14:50:51;7.65;;;2.63;;
19036;SDS011;9651;49.138;8.900;2023-07-31T14:54:53;5.75;;;2.30;;
19036;SDS011;9651;49.138;8.900;2023-07-31T14:58:57;4.65;;;2.58;;
19036;SDS011;9651;49.138;8.900;2023-07-31T15:02:59;4.78;;;1.88;;
19036;SDS011;9651;49.138;8.900;2023-07-31T15:07:00;3.03;;;1.90;;
19036;SDS011;9651;49.138;8.900;2023-07-31T15:11:02;5.85;;;2.70;;
19036;SDS011;9651;49.138;8.900;2023-07-31T15:15:06;3.67;;;1.98;;
19036;SDS011;9651;49.138;8.900;2023-07-31T15:19:09;5.10;;;1.88;;
19036;SDS011;9651;49.138;8.900;2023-07-31T15:23:11;4.13;;;1.80;;
19036;SDS011;9651;49.138;8.900;2023-07-31T15:27:13;4.90;;;2.13;;
19036;SDS011;9651;49.138;8.900;2023-07-31T15:31:16;3.35;;;1.83;;
19036;SDS011;9651;49.138;8.900;2023-07-31T15:35:18;3.25;;;1.83;;
19036;SDS011;9651;49.138;8.900;2023-07-31T15:39:20;4.57;;;2.00;;
19036;SDS011;9651;49.138;8.900;2023-07-31T15:43:21;5.20;;;2.28;;
19036;SDS011;9651;49.138;8.900;2023-07-31T15:47:25;4.47;;;2.17;;
19036;SDS011;9651;49.138;8.900;2023-07-31T15:51:27;6.78;;;2.10;;
19036;SDS011;9651;49.138;8.900;2023-07-31T15:55:29;4.60;;;2.50;;
19036;SDS011;9651;49.138;8.900;2023-07-31T15:59:31;5.45;;;2.15;;
19036;SDS011;9651;49.138;8.900;2023-07-31T16:03:34;6.40;;;2.30;;
19036;SDS011;9651;49.138;8.900;2023-07-31T16:07:36;4.70;;;2.10;;
19036;SDS011;9651;49.138;8.900;2023-07-31T16:11:38;3.13;;;2.22;;
19036;SDS011;9651;49.138;8.900;2023-07-31T16:15:40;5.80;;;2.47;;
19036;SDS011;9651;49.138;8.900;2023-07-31T16:19:43;4.80;;;1.98;;
19036;SDS011;9651;49.138;8.900;2023-07-31T16:23:45;3.85;;;2.15;;
19036;SDS011;9651;49.138;8.900;2023-07-31T16:27:47;4.10;;;2.05;;
19036;SDS011;9651;49.138;8.900;2023-07-31T16:31:48;5.80;;;2.33;;
19036;SDS011;9651;49.138;8.900;2023-07-31T16:35:52;3.67;;;1.98;;
19036;SDS011;9651;49.138;8.900;2023-07-31T16:39:53;3.88;;;2.20;;
19036;SDS011;9651;49.138;8.900;2023-07-31T16:43:55;7.03;;;2.50;;
19036;SDS011;9651;49.138;8.900;2023-07-31T16:47:57;3.50;;;1.80;;
19036;SDS011;9651;49.138;8.900;2023-07-31T16:52:01;4.32;;;2.33;;
19036;SDS011;9651;49.138;8.900;2023-07-31T16:56:03;4.47;;;2.45;;
19036;SDS011;9651;49.138;8.900;2023-07-31T17:00:05;6.53;;;2.17;;
19036;SDS011;9651;49.138;8.900;2023-07-31T17:04:08;6.53;;;2.40;;
19036;SDS011;9651;49.138;8.900;2023-07-31T17:08:11;4.85;;;2.40;;
19036;SDS011;9651;49.138;8.900;2023-07-31T17:12:14;4.88;;;2.45;;
19036;SDS011;9651;49.138;8.900;2023-07-31T17:16:16;5.57;;;2.22;;
19036;SDS011;9651;49.138;8.900;2023-07-31T17:20:19;7.03;;;2.20;;
19036;SDS011;9651;49.138;8.900;2023-07-31T17:24:22;9.93;;;2.75;;
19036;SDS011;9651;49.138;8.900;2023-07-31T17:28:24;5.97;;;2.40;;
19036;SDS011;9651;49.138;8.900;2023-07-31T17:32:25;3.65;;;2.53;;
19036;SDS011;9651;49.138;8.900;2023-07-31T17:36:27;6.35;;;2.92;;
19036;SDS011;9651;49.138;8.900;2023-07-31T17:40:33;4.93;;;2.33;;
19036;SDS011;9651;49.138;8.900;2023-07-31T17:44:35;4.22;;;2.40;;
19036;SDS011;9651;49.138;8.900;2023-07-31T17:48:37;4.30;;;2.40;;
19036;SDS011;9651;49.138;8.900;2023-07-31T17:52:39;5.25;;;3.03;;
19036;SDS011;9651;49.138;8.900;2023-07-31T17:56:42;5.28;;;2.75;;
19036;SDS011;9651;49.138;8.900;2023-07-31T18:00:44;5.93;;;2.78;;
19036;SDS011;9651;49.138;8.900;2023-07-31T18:04:46;8.68;;;3.28;;
19036;SDS011;9651;49.138;8.900;2023-07-31T18:08:48;8.38;;;2.90;;
19036;SDS011;9651;49.138;8.900;2023-07-31T18:12:52;5.93;;;2.83;;
19036;SDS011;9651;49.138;8.900;2023-07-31T18:16:54;5.63;;;2.95;;
19036;SDS011;9651;49.138;8.900;2023-07-31T18:20:56;11.93;;;4.07;;
19036;SDS011;9651;49.138;8.900;2023-07-31T18:24:59;6.15;;;2.92;;
19036;SDS011;9651;49.138;8.900;2023-07-31T18:29:02;6.88;;;2.70;;
19036;SDS011;9651;49.138;8.900;2023-07-31T18:33:04;6.15;;;3.08;;
19036;SDS011;9651;49.138;8.900;2023-07-31T18:37:05;4.82;;;2.58;;
19036;SDS011;9651;49.138;8.900;2023-07-31T18:41:07;4.85;;;3.13;;
19036;SDS011;9651;49.138;8.900;2023-07-31T18:45:11;6.00;;;3.35;;
19036;SDS011;9651;49.138;8.900;2023-07-31T18:49:12;4.72;;;3.42;;
19036;SDS011;9651;49.138;8.900;2023-07-31T18:53:14;4.93;;;3.17;;
19036;SDS011;9651;49.138;8.900;2023-07-31T18:57:17;7.28;;;3.53;;
19036;SDS011;9651;49.138;8.900;2023-07-31T19:01:20;6.05;;;3.20;;
19036;SDS011;9651;49.138;8.900;2023-07-31T19:05:23;5.68;;;3.90;;
19036;SDS011;9651;49.138;8.900;2023-07-31T19:09:28;5.57;;;3.30;;
19036;SDS011;9651;49.138;8.900;2023-07-31T19:13:32;5.63;;;3.70;;
19036;SDS011;9651;49.138;8.900;2023-07-31T19:17:35;6.60;;;3.63;;
19036;SDS011;9651;49.138;8.900;2023-07-31T19:21:38;8.38;;;3.30;;
19036;SDS011;9651;49.138;8.900;2023-07-31T19:25:40;5.28;;;2.97;;
19036;SDS011;9651;49.138;8.900;2023-07-31T19:29:42;4.30;;;2.92;;
19036;SDS011;9651;49.138;8.900;2023-07-31T19:33:45;7.05;;;3.33;;
19036;SDS011;9651;49.138;8.900;2023-07-31T19:37:47;9.45;;;3.72;;
19036;SDS011;9651;49.138;8.900;2023-07-31T19:41:49;5.65;;;2.83;;
19036;SDS011;9651;49.138;8.900;2023-07-31T19:45:51;4.55;;;3.08;;
19036;SDS011;9651;49.138;8.900;2023-07-31T19:49:55;6.30;;;3.53;;
19036;SDS011;9651;49.138;8.900;2023-07-31T19:53:56;7.93;;;3.22;;
19036;SDS011;9651;49.138;8.900;2023-07-31T19:57:58;5.30;;;3.03;;
19036;SDS011;9651;49.138;8.900;2023-07-31T20:02:00;7.88;;;3.22;;
19036;SDS011;9651;49.138;8.900;2023-07-31T20:06:04;5.40;;;2.85;;
19036;SDS011;9651;49.138;8.900;2023-07-31T20:10:06;8.18;;;3.50;;
19036;SDS011;9651;49.138;8.900;2023-07-31T20:14:08;5.05;;;3.13;;
19036;SDS011;9651;49.138;8.900;2023-07-31T20:18:11;6.07;;;3.13;;
19036;SDS011;9651;49.138;8.900;2023-07-31T20:22:14;8.18;;;3.55;;
19036;SDS011;9651;49.138;8.900;2023-07-31T20:26:16;5.97;;;2.92;;
19036;SDS011;9651;49.138;8.900;2023-07-31T20:30:18;7.28;;;3.17;;
19036;SDS011;9651;49.138;8.900;2023-07-31T20:34:19;4.15;;;2.90;;
19036;SDS011;9651;49.138;8.900;2023-07-31T20:38:23;8.48;;;3.25;;
19036;SDS011;9651;49.138;8.900;2023-07-31T20:42:25;4.53;;;2.90;;
19036;SDS011;9651;49.138;8.900;2023-07-31T20:46:28;9.32;;;3.75;;
19036;SDS011;9651;49.138;8.900;2023-07-31T20:50:30;4.93;;;3.30;;
19036;SDS011;9651;49.138;8.900;2023-07-31T20:54:33;5.22;;;3.47;;
19036;SDS011;9651;49.138;8.900;2023-07-31T20:58:35;5.00;;;2.85;;
19036;SDS011;9651;49.138;8.900;2023-07-31T21:02:37;6.40;;;3.72;;
19036;SDS011;9651;49.138;8.900;2023-07-31T21:06:39;4.60;;;2.83;;
19036;SDS011;9651;49.138;8.900;2023-07-31T21:10:42;4.47;;;2.80;;
19036;SDS011;9651;49.138;8.900;2023-07-31T21:14:44;5.25;;;3.38;;
19036;SDS011;9651;49.138;8.900;2023-07-31T21:18:46;6.68;;;3.50;;
19036;SDS011;9651;49.138;8.900;2023-07-31T21:22:48;8.32;;;2.95;;
19036;SDS011;9651;49.138;8.900;2023-07-31T21:26:51;7.53;;;3.17;;
19036;SDS011;9651;49.138;8.900;2023-07-31T21:30:53;5.22;;;3.05;;
19036;SDS011;9651;49.138;8.900;2023-07-31T21:34:55;5.28;;;3.38;;
19036;SDS011;9651;49.138;8.900;2023-07-31T21:38:57;4.82;;;3.33;;
19036;SDS011;9651;49.138;8.900;2023-07-31T21:43:00;5.45;;;3.70;;
19036;SDS011;9651;49.138;8.900;2023-07-31T21:47:02;7.05;;;4.32;;
19036;SDS011;9651;49.138;8.900;2023-07-31T21:51:04;6.00;;;4.28;;
19036;SDS011;9651;49.138;8.900;2023-07-31T21:55:07;6.82;;;4.93;;
19036;SDS011;9651;49.138;8.900;2023-07-31T21:59:10;7.28;;;5.00;;
19036;SDS011;9651;49.138;8.900;2023-07-31T22:03:12;7.40;;;4.65;;
19036;SDS011;9651;49.138;8.900;2023-07-31T22:07:14;6.15;;;4.88;;
19036;SDS011;9651;49.138;8.900;2023-07-31T22:11:16;5.40;;;4.03;;
19036;SDS011;9651;49.138;8.900;2023-07-31T22:15:21;9.50;;;5.30;;
19036;SDS011;9651;49.138;8.900;2023-07-31T22:19:23;9.07;;;4.90;;
19036;SDS011;9651;49.138;8.900;2023-07-31T22:23:25;8.02;;;4.47;;
19036;SDS011;9651;49.138;8.900;2023-07-31T22:27:26;10.05;;;4.80;;
19036;SDS011;9651;49.138;8.900;2023-07-31T22:31:30;5.40;;;3.60;;
19036;SDS011;9651;49.138;8.900;2023-07-31T22:35:31;5.75;;;3.45;;
19036;SDS011;9651;49.138;8.900;2023-07-31T22:39:33;11.30;;;4.22;;
19036;SDS011;9651;49.138;8.900;2023-07-31T22:43:35;8.18;;;2.75;;
19036;SDS011;9651;49.138;8.900;2023-07-31T22:47:38;5.45;;;3.30;;
19036;SDS011;9651;49.138;8.900;2023-07-31T22:51:40;5.15;;;3.50;;
19036;SDS011;9651;49.138;8.900;2023-07-31T22:55:42;11.88;;;5.03;;
19036;SDS011;9651;49.138;8.900;2023-07-31T22:59:44;7.57;;;3.90;;
19036;SDS011;9651;49.138;8.900;2023-07-31T23:03:47;4.28;;;3.45;;
19036;SDS011;9651;49.138;8.900;2023-07-31T23:07:49;5.25;;;3.17;;
19036;SDS011;9651;49.138;8.900;2023-07-31T23:11:51;6.47;;;3.10;;
19036;SDS011;9651;49.138;8.900;2023-07-31T23:15:53;4.32;;;2.75;;
19036;SDS011;9651;49.138;8.900;2023-07-31T23:19:56;3.53;;;2.90;;
19036;SDS011;9651;49.138;8.900;2023-07-31T23:23:58;7.68;;;3.97;;
19036;SDS011;9651;49.138;8.900;2023-07-31T23:27:59;7.22;;;3.50;;
19036;SDS011;9651;49.138;8.900;2023-07-31T23:32:01;4.85;;;3.15;;
19036;SDS011;9651;49.138;8.900;2023-07-31T23:36:09;6.47;;;3.47;;
19036;SDS011;9651;49.138;8.900;2023-07-31T23:40:11;5.57;;;3.58;;
19036;SDS011;9651;49.138;8.900;2023-07-31T23:44:14;6.13;;;3.47;;
19036;SDS011;9651;49.138;8.900;2023-07-31T23:48:15;6.85;;;3.53;;
19036;SDS011;9651;49.138;8.900;2023-07-31T23:52:19;6.72;;;3.63;;
19036;SDS011;9651;49.138;8.900;2023-07-31T23:56:20;5.72;;;3.55;;
